Airfield :







YOU CAN JOIN US ON...

 
LOGIN :

Register | Disclaimer

   EN    FR    IT 

 









Legend :    VFR   Marginal VFR   IFR   Intensive IFR   Very Intensive IFR
Visi :
Ceiling :
>= 8 km
>= 3000ft
5 to 8 km
1000 to 3000 ft
1500m to 5 km
500 to 1000 ft
800 to 1500m
200 to 500 ft
< 800m
< 200 ft
Symbols :   Thunderstorms  Fog  Heavy snow  Heavy precipitations  Wind > 20 kt






- Airport Elevation : 1825 ft


K8B0 - Steven A. Bean Municipal

CURRENT METAR :
  • 021955Z AUTO 03004KT 10SM -RA OVC016 03/01 A2958 RMK AO2 P0004

EXPIRED METARs :
  • 021935Z AUTO 03004KT 10SM -RA OVC014 03/01 A2959 RMK AO2 P0003
  • 021915Z AUTO 00000KT 10SM -RA BKN014 02/01 A2959 RMK AO2 P0001
  • 021855Z AUTO 04003KT 10SM -RA BKN014 02/01 A2960 RMK AO2 P0005
  • 021835Z AUTO 05003KT 7SM -RA SCT016 02/01 A2960 RMK AO2 P0003
  • 021815Z AUTO 04005KT 10SM -RA BKN014 BKN020 02/01 A2960 RMK AO2 P0002
  • 021755Z AUTO 04003KT 10SM -RA OVC012 02/00 A2960 RMK AO2 P0006
  • 021735Z AUTO 00000KT 7SM -RA BKN014 02/00 A2961 RMK AO2 P0005
  • 021715Z AUTO 06004KT 5SM RA SCT014 02/00 A2961 RMK AO2 P0003

TAF N/A



MET'MAP, your aeronautical weather chart ! - Copyright ORBIFLY December 2007 - Disclaimer

ORBIFLY MET'MAP TEAM :

Programming & Development : Alexandra Zaïnal
Concept & original design : Baudouin d'Aumeries
Assistance for programming : Marc-Olivier Méhu
Technical & hardware support : Manuel Goepfert

Contact : metmap@orbifly.com




SOURCES & CREDITS :

   NOAA